Time;durP1;ratioP1;P1;durP2;ratioP2;P2;SDS_P1;SDS_P2;PMS_P1;PMS_P2;Temp;Humidity;BMP_temperature;BMP_pressure;BME280_temperature;BME280_humidity;BME280_pressure;Samples;Min_cycle;Max_cycle;Signal;HPM_P1;HPM_P2
2023/06/30 00:01:37;;;;;;;6.95;2.90;;;;;;;18.46;64.80;101380.00;4967886;28;20098;-79
2023/06/30 00:04:03;;;;;;;5.10;2.88;;;;;;;18.45;65.14;101378.28;4967795;28;20058;-79
2023/06/30 00:06:29;;;;;;;7.50;3.17;;;;;;;18.42;65.03;101372.28;4965237;28;20077;-79
2023/06/30 00:08:55;;;;;;;5.20;2.97;;;;;;;18.35;65.32;101370.00;4964583;28;20054;-79
2023/06/30 00:11:23;;;;;;;9.35;3.35;;;;;;;18.32;65.97;101372.00;4963348;28;20030;-79
2023/06/30 00:13:52;;;;;;;5.72;2.72;;;;;;;18.31;66.03;101372.97;4950059;28;20062;-79
2023/06/30 00:16:17;;;;;;;3.95;2.67;;;;;;;18.30;66.74;101379.28;4970315;28;20390;-79
2023/06/30 00:18:43;;;;;;;3.95;3.00;;;;;;;18.29;66.56;101385.59;4971137;28;20042;-79
2023/06/30 00:21:08;;;;;;;6.95;3.38;;;;;;;18.22;66.91;101379.75;4965674;28;20034;-79
2023/06/30 00:23:33;;;;;;;5.22;3.17;;;;;;;18.20;66.00;101375.47;4966803;28;20557;-79
2023/06/30 00:25:59;;;;;;;7.40;3.20;;;;;;;18.17;66.85;101376.53;4965697;28;20029;-79
2023/06/30 00:28:24;;;;;;;8.15;3.00;;;;;;;18.15;66.33;101378.44;4965436;28;20027;-79
2023/06/30 00:30:49;;;;;;;6.82;3.22;;;;;;;18.13;66.22;101380.34;4967547;28;20036;-79
2023/06/30 00:33:15;;;;;;;7.75;2.72;;;;;;;18.13;66.15;101364.28;4966389;28;20031;-79
2023/06/30 00:35:40;;;;;;;8.02;3.00;;;;;;;18.10;65.86;101365.38;4970691;28;20384;-79
2023/06/30 00:38:05;;;;;;;7.60;2.70;;;;;;;18.03;65.94;101357.81;4967891;28;20022;-79
2023/06/30 00:40:30;;;;;;;8.48;2.60;;;;;;;17.99;66.43;101361.63;4970671;28;20461;-79
2023/06/30 00:42:56;;;;;;;6.50;2.60;;;;;;;17.94;66.37;101361.91;4963858;28;20031;-79
2023/06/30 00:45:22;;;;;;;5.80;2.80;;;;;;;17.88;66.43;101364.13;4969152;28;20175;-79
2023/06/30 00:47:47;;;;;;;7.75;2.97;;;;;;;17.85;66.26;101366.03;4970323;28;20388;-79
2023/06/30 00:50:13;;;;;;;8.80;2.72;;;;;;;17.83;66.20;101356.38;4962726;28;20437;-79
2023/06/30 00:52:39;;;;;;;7.05;2.80;;;;;;;17.79;66.24;101363.75;4965190;28;20442;-79
2023/06/30 00:55:07;;;;;;;8.27;2.60;;;;;;;17.70;66.75;101366.94;4968421;28;20023;-79
2023/06/30 00:57:32;;;;;;;6.38;3.05;;;;;;;17.55;66.83;101363.41;4948925;28;20077;-79
2023/06/30 01:00:04;;;;;;;7.18;2.60;;;;;;;17.58;66.83;101365.91;4968747;28;20477;-79
2023/06/30 01:02:30;;;;;;;9.00;2.90;;;;;;;17.56;66.72;101369.59;4965914;28;20031;-79
2023/06/30 01:05:25;;;;;;;6.63;2.60;;;;;;;17.65;65.91;101370.88;4966545;28;20022;-79
2023/06/30 01:07:55;;;;;;;8.30;3.10;;;;;;;17.56;66.58;101378.47;4963467;28;20069;-79
2023/06/30 01:10:24;;;;;;;5.82;2.33;;;;;;;17.47;66.31;101365.69;4968837;28;20018;-79
2023/06/30 01:12:50;;;;;;;10.15;3.22;;;;;;;17.49;66.70;101387.00;4965382;28;20031;-79
2023/06/30 01:15:16;;;;;;;9.10;2.90;;;;;;;17.50;66.49;101380.69;4961770;28;20023;-79
2023/06/30 01:17:47;;;;;;;6.13;2.40;;;;;;;17.45;66.78;101374.75;4966130;28;20027;-79
2023/06/30 01:20:16;;;;;;;10.35;2.65;;;;;;;17.42;66.56;101366.91;4968984;28;20026;-79
2023/06/30 01:22:50;;;;;;;8.05;2.90;;;;;;;17.43;66.54;101369.47;4960853;28;20077;-79
2023/06/30 01:25:20;;;;;;;5.93;2.60;;;;;;;17.43;66.35;101374.81;4969377;28;20115;-79
2023/06/30 01:27:46;;;;;;;6.75;2.75;;;;;;;17.30;67.16;101376.53;4965538;28;20031;-79
2023/06/30 01:30:13;;;;;;;7.22;2.65;;;;;;;17.28;67.51;101378.44;4971332;28;20031;-79
2023/06/30 01:32:39;;;;;;;7.18;2.40;;;;;;;17.32;66.84;101380.84;4961104;28;20102;-79
2023/06/30 01:35:04;;;;;;;7.40;2.80;;;;;;;17.34;67.09;101368.22;4967120;28;20106;-79
2023/06/30 01:37:30;;;;;;;9.05;2.90;;;;;;;17.43;66.62;101372.16;4965981;28;20109;-79
2023/06/30 01:39:55;;;;;;;7.72;2.75;;;;;;;17.44;67.33;101370.34;4969265;28;20486;-79
2023/06/30 01:42:20;;;;;;;8.20;2.67;;;;;;;17.47;66.82;101381.72;4943278;28;20425;-79
2023/06/30 01:44:46;;;;;;;4.90;2.50;;;;;;;17.44;66.18;101373.91;4969350;28;20031;-79
2023/06/30 01:47:11;;;;;;;6.85;3.10;;;;;;;17.40;66.76;101361.66;4969176;28;20046;-79
2023/06/30 01:49:37;;;;;;;6.25;2.22;;;;;;;17.44;68.05;101359.66;4972941;28;20035;-79
2023/06/30 01:52:03;;;;;;;7.82;2.70;;;;;;;17.38;66.66;101360.03;4970195;28;20023;-79
2023/06/30 01:54:28;;;;;;;7.97;2.50;;;;;;;17.36;65.84;101359.28;4968602;28;20039;-79
2023/06/30 01:56:54;;;;;;;8.27;2.53;;;;;;;17.31;67.49;101352.38;4971504;28;20057;-79
2023/06/30 01:59:19;;;;;;;8.00;2.30;;;;;;;17.31;66.05;101357.72;4972352;28;20109;-79
2023/06/30 02:01:46;;;;;;;6.47;2.65;;;;;;;17.23;66.52;101360.00;4972104;28;20031;-79
2023/06/30 02:04:12;;;;;;;5.85;2.40;;;;;;;17.19;68.74;101355.78;4969166;28;20470;-79
2023/06/30 02:06:38;;;;;;;7.07;2.60;;;;;;;17.14;65.85;101357.00;4954480;28;20034;-79
2023/06/30 02:09:03;;;;;;;8.10;2.63;;;;;;;17.12;65.83;101362.47;4968594;28;20572;-79
2023/06/30 02:11:29;;;;;;;7.68;2.40;;;;;;;17.13;65.69;101364.19;4968837;28;20027;-79
2023/06/30 02:13:54;;;;;;;5.45;2.83;;;;;;;17.13;65.84;101349.97;4969996;28;20138;-79
2023/06/30 02:16:19;;;;;;;9.52;2.15;;;;;;;17.08;65.91;101353.75;4968624;28;20395;-79
2023/06/30 02:18:45;;;;;;;4.70;2.55;;;;;;;16.99;66.46;101353.44;4969790;28;20060;-79
2023/06/30 02:21:10;;;;;;;8.10;2.58;;;;;;;16.98;67.50;101359.75;4953417;28;20097;-79
2023/06/30 02:23:35;;;;;;;9.15;2.42;;;;;;;16.94;65.95;101356.38;4951125;28;20100;-79
2023/06/30 02:26:00;;;;;;;8.15;2.65;;;;;;;16.83;66.86;101353.47;4968119;28;20027;-79
2023/06/30 02:28:26;;;;;;;8.45;2.58;;;;;;;16.81;66.15;101352.69;4970159;28;20482;-79
2023/06/30 02:30:51;;;;;;;8.88;2.50;;;;;;;16.80;66.38;101359.84;4952728;28;20051;-79
2023/06/30 02:33:16;;;;;;;10.18;2.70;;;;;;;16.83;66.13;101359.69;4968400;28;20035;-79
2023/06/30 02:35:42;;;;;;;6.05;2.25;;;;;;;16.81;67.03;101353.56;4950303;28;20482;-79
2023/06/30 02:38:07;;;;;;;8.18;2.40;;;;;;;16.75;66.54;101369.09;4968012;28;20045;-79
2023/06/30 02:40:33;;;;;;;7.05;2.30;;;;;;;16.60;66.71;101365.47;4962556;28;20344;-79
2023/06/30 02:42:58;;;;;;;4.25;2.30;;;;;;;16.36;67.74;101366.81;4969267;28;20501;-79
2023/06/30 02:45:24;;;;;;;4.38;2.15;;;;;;;16.29;67.56;101372.50;4962932;28;20099;-79
2023/06/30 02:47:49;;;;;;;7.03;2.42;;;;;;;16.25;67.94;101376.28;4972206;28;20026;-79
2023/06/30 02:50:15;;;;;;;6.07;2.50;;;;;;;16.21;68.13;101380.06;4973645;28;20029;-79
2023/06/30 02:52:40;;;;;;;5.90;2.22;;;;;;;16.17;68.33;101383.84;4970328;28;20034;-79
2023/06/30 02:55:06;;;;;;;7.25;2.83;;;;;;;16.15;68.19;101384.88;4969885;28;20023;-79
2023/06/30 02:57:31;;;;;;;6.20;2.47;;;;;;;16.10;68.53;101390.47;4969719;28;20034;-79
2023/06/30 02:59:56;;;;;;;7.15;2.70;;;;;;;16.06;68.02;101386.25;4968424;28;20033;-79
2023/06/30 03:02:22;;;;;;;6.13;2.55;;;;;;;15.99;68.54;101388.41;4965043;28;20034;-79
2023/06/30 03:04:47;;;;;;;4.35;2.42;;;;;;;15.91;69.48;101392.41;4970220;28;20027;-79
2023/06/30 03:07:12;;;;;;;5.40;2.97;;;;;;;15.71;69.80;101388.97;4946187;28;20048;-79
2023/06/30 03:09:38;;;;;;;6.70;2.78;;;;;;;15.61;69.92;101387.72;4946343;28;20091;-79
2023/06/30 03:12:04;;;;;;;5.07;2.60;;;;;;;15.49;70.15;101386.56;4966812;28;20058;-79
2023/06/30 03:14:29;;;;;;;4.95;1.92;;;;;;;15.53;69.95;101392.59;4966682;28;20545;-79
2023/06/30 03:16:54;;;;;;;7.45;3.10;;;;;;;15.49;70.06;101391.91;4970824;28;20031;-79
2023/06/30 03:19:19;;;;;;;5.45;3.00;;;;;;;15.55;69.96;101390.72;4967524;28;20400;-79
2023/06/30 03:21:45;;;;;;;9.05;3.40;;;;;;;15.57;69.49;101388.81;4970968;28;20019;-79
2023/06/30 03:24:10;;;;;;;4.85;2.72;;;;;;;15.56;69.67;101377.28;4950188;28;20410;-79
2023/06/30 03:26:35;;;;;;;6.50;3.13;;;;;;;15.55;69.47;101378.25;4966371;28;20034;-79
2023/06/30 03:29:01;;;;;;;4.43;3.28;;;;;;;15.50;69.77;101376.75;4967400;28;20493;-79
2023/06/30 03:31:27;;;;;;;7.45;2.95;;;;;;;15.25;70.32;101372.72;4969435;28;20065;-79
2023/06/30 03:33:52;;;;;;;6.70;3.10;;;;;;;15.06;71.20;101374.56;4966196;28;20117;-79
2023/06/30 03:36:17;;;;;;;7.20;2.92;;;;;;;14.91;71.71;101373.53;4963817;28;20027;-79
2023/06/30 03:38:43;;;;;;;5.22;2.65;;;;;;;14.86;72.21;101370.25;4963722;28;20035;-79
2023/06/30 03:41:08;;;;;;;7.55;3.13;;;;;;;14.84;72.14;101368.59;4968340;28;20462;-79
2023/06/30 03:43:33;;;;;;;7.57;3.28;;;;;;;14.78;72.18;101370.63;4950695;28;20033;-79
2023/06/30 03:45:59;;;;;;;8.23;3.33;;;;;;;14.82;72.15;101367.81;4961145;28;20394;-79
2023/06/30 03:48:24;;;;;;;9.35;4.03;;;;;;;14.87;71.80;101374.63;4962785;28;20035;-80
2023/06/30 03:50:53;;;;;;;7.72;3.25;;;;;;;14.86;72.09;101372.91;4970565;28;20022;-79
2023/06/30 03:53:18;;;;;;;7.05;3.28;;;;;;;14.92;71.67;101369.06;4957822;28;20057;-80
2023/06/30 03:55:44;;;;;;;8.30;4.03;;;;;;;14.87;71.63;101366.63;4963214;28;20110;-79
2023/06/30 03:58:09;;;;;;;10.45;3.60;;;;;;;14.85;71.80;101365.84;4969507;28;20026;-80
2023/06/30 04:00:34;;;;;;;8.02;3.30;;;;;;;14.84;72.15;101372.13;4965647;28;20034;-80
2023/06/30 04:03:00;;;;;;;7.95;3.90;;;;;;;14.91;71.56;101357.56;4967963;28;20023;-79
2023/06/30 04:05:25;;;;;;;6.63;3.90;;;;;;;14.87;71.80;101360.44;4966896;28;20031;-79
2023/06/30 04:07:50;;;;;;;6.13;3.50;;;;;;;14.84;72.24;101360.63;4967341;28;20062;-79
2023/06/30 04:10:16;;;;;;;9.45;4.32;;;;;;;14.88;72.34;101356.88;4964881;28;20027;-80
2023/06/30 04:12:44;;;;;;;7.97;4.05;;;;;;;14.72;72.95;101365.59;4960412;28;20424;-80
2023/06/30 04:15:10;;;;;;;8.65;3.92;;;;;;;14.67;73.01;101370.28;4962157;28;20105;-79
2023/06/30 04:17:37;;;;;;;8.77;3.85;;;;;;;14.50;73.70;101370.22;4966130;28;20494;-79
2023/06/30 04:20:14;;;;;;;7.90;4.30;;;;;;;14.35;74.62;101374.44;4970388;28;20613;-80
2023/06/30 04:22:40;;;;;;;9.40;4.13;;;;;;;14.54;73.66;101372.66;4962181;28;20478;-80
2023/06/30 04:25:06;;;;;;;8.48;4.05;;;;;;;14.61;72.56;101367.94;4963361;28;20031;-80
2023/06/30 04:27:31;;;;;;;7.97;4.50;;;;;;;14.67;72.39;101359.63;4964764;28;20445;-79
2023/06/30 04:29:57;;;;;;;7.70;4.25;;;;;;;14.80;72.08;101366.09;4962468;28;20023;-80
2023/06/30 04:32:22;;;;;;;8.73;4.53;;;;;;;14.91;72.60;101372.66;4969217;28;20030;-80
2023/06/30 04:34:47;;;;;;;9.20;4.75;;;;;;;15.02;72.14;101373.03;4968858;28;20031;-79
2023/06/30 04:37:13;;;;;;;10.93;4.95;;;;;;;15.10;71.41;101365.47;4970547;28;20512;-80
2023/06/30 04:39:38;;;;;;;10.75;5.18;;;;;;;14.98;72.33;101366.13;4968050;28;20027;-79
2023/06/30 04:42:04;;;;;;;11.38;5.10;;;;;;;14.95;72.74;101371.59;4962761;28;20060;-79
2023/06/30 04:44:30;;;;;;;11.88;5.15;;;;;;;14.90;72.33;101369.16;4966582;28;20052;-79
2023/06/30 04:46:56;;;;;;;11.35;5.65;;;;;;;14.88;73.06;101364.84;4950710;28;20031;-79
2023/06/30 04:49:22;;;;;;;9.35;5.13;;;;;;;14.93;72.90;101366.34;4967685;28;20015;-80
2023/06/30 04:51:47;;;;;;;6.95;5.32;;;;;;;14.99;73.00;101373.16;4969139;28;20069;-80
2023/06/30 04:54:12;;;;;;;9.38;5.00;;;;;;;15.08;72.78;101375.38;4968363;28;20033;-80
2023/06/30 04:56:38;;;;;;;8.20;5.20;;;;;;;15.10;72.56;101372.59;4943558;28;20024;-80
2023/06/30 04:59:04;;;;;;;11.48;5.68;;;;;;;15.18;72.14;101367.75;4968300;28;20370;-80
2023/06/30 05:01:31;;;;;;;10.32;5.03;;;;;;;15.33;71.27;101366.97;4963734;28;20122;-80
2023/06/30 05:03:57;;;;;;;14.18;6.32;;;;;;;15.45;72.20;101366.34;4966887;28;20065;-79
2023/06/30 05:06:22;;;;;;;9.10;5.72;;;;;;;15.54;70.62;101376.53;4966799;28;20294;-80
2023/06/30 05:08:47;;;;;;;11.10;5.13;;;;;;;15.56;70.73;101369.31;4951215;28;20169;-80
2023/06/30 05:11:13;;;;;;;9.05;5.25;;;;;;;15.61;70.11;101363.72;4968186;28;20034;-80
2023/06/30 05:13:38;;;;;;;13.38;6.22;;;;;;;15.70;70.24;101365.94;4968520;28;20434;-80
2023/06/30 05:16:03;;;;;;;10.50;5.68;;;;;;;15.74;70.30;101364.84;4949788;28;20027;-79
2023/06/30 05:18:28;;;;;;;9.15;5.35;;;;;;;15.79;70.10;101362.78;4970429;28;20034;-79
2023/06/30 05:20:55;;;;;;;10.90;5.45;;;;;;;15.81;70.39;101358.25;4969495;28;20062;-79
2023/06/30 05:23:20;;;;;;;8.85;4.68;;;;;;;15.85;69.28;101366.06;4966724;28;20113;-79
2023/06/30 05:25:45;;;;;;;10.80;4.90;;;;;;;15.95;68.69;101367.31;4948014;28;20118;-79
2023/06/30 05:28:10;;;;;;;7.00;4.85;;;;;;;16.04;68.59;101361.44;4964891;28;20242;-79
2023/06/30 05:30:36;;;;;;;8.82;4.50;;;;;;;16.13;68.11;101360.94;4964941;28;20077;-79
2023/06/30 05:33:01;;;;;;;7.43;4.40;;;;;;;16.14;68.91;101368.03;4964155;28;20033;-79
2023/06/30 05:35:26;;;;;;;6.40;4.43;;;;;;;16.24;67.75;101373.72;4963204;28;20022;-79
2023/06/30 05:37:51;;;;;;;8.45;4.78;;;;;;;16.26;69.13;101366.47;4964842;28;20252;-79
2023/06/30 05:40:17;;;;;;;8.73;4.32;;;;;;;16.29;66.86;101363.66;4949310;28;20030;-79
2023/06/30 05:42:42;;;;;;;11.00;4.45;;;;;;;16.36;66.69;101367.69;4962429;28;20482;-79
2023/06/30 05:45:08;;;;;;;7.80;4.30;;;;;;;16.40;66.02;101374.56;4965133;28;20038;-79
2023/06/30 05:47:33;;;;;;;7.80;3.92;;;;;;;16.50;66.32;101374.91;4960203;28;20372;-79
2023/06/30 05:49:58;;;;;;;9.20;3.80;;;;;;;16.55;66.49;101372.84;4966281;28;20054;-79
2023/06/30 05:52:24;;;;;;;9.18;3.78;;;;;;;16.61;65.65;101375.19;4967781;28;20026;-79
2023/06/30 05:54:50;;;;;;;7.93;4.00;;;;;;;16.67;65.29;101377.50;4964299;28;20027;-80
2023/06/30 05:57:16;;;;;;;6.38;3.38;;;;;;;16.72;64.78;101370.13;4962666;28;20518;-79
2023/06/30 05:59:41;;;;;;;6.15;3.70;;;;;;;16.78;64.72;101363.56;4960926;28;20030;-80
2023/06/30 06:02:06;;;;;;;8.35;3.90;;;;;;;16.84;65.65;101379.25;4958580;28;20019;-80
2023/06/30 06:04:31;;;;;;;8.20;3.10;;;;;;;16.85;64.47;101372.09;4967650;28;20563;-80
2023/06/30 06:06:57;;;;;;;6.57;3.13;;;;;;;16.88;64.13;101364.75;4965950;28;20041;-79
2023/06/30 06:09:22;;;;;;;6.15;2.97;;;;;;;16.91;63.66;101372.56;4948407;28;20414;-79
2023/06/30 06:11:47;;;;;;;7.20;2.83;;;;;;;17.02;64.90;101378.19;4965559;28;20039;-79
2023/06/30 06:14:13;;;;;;;6.97;3.47;;;;;;;17.05;62.03;101377.13;4948559;28;20603;-79
2023/06/30 06:16:38;;;;;;;4.22;3.22;;;;;;;17.07;62.95;101372.56;4965678;28;20022;-80
2023/06/30 06:19:03;;;;;;;6.25;3.30;;;;;;;17.12;61.87;101380.31;4966148;28;20034;-80
2023/06/30 06:21:28;;;;;;;6.72;3.45;;;;;;;17.21;62.43;101375.28;4966464;28;20433;-79
2023/06/30 06:23:55;;;;;;;13.70;3.40;;;;;;;17.36;61.52;101380.66;4967102;28;20030;-80
2023/06/30 06:26:20;;;;;;;4.95;2.92;;;;;;;17.55;60.46;101382.13;4962559;28;20081;-79
2023/06/30 06:28:45;;;;;;;5.35;3.30;;;;;;;17.73;61.25;101377.50;4964426;28;20026;-79
2023/06/30 06:31:11;;;;;;;7.47;3.10;;;;;;;17.93;59.71;101381.59;4963536;28;20050;-80
2023/06/30 06:33:36;;;;;;;6.43;3.47;;;;;;;18.08;57.72;101388.66;4962678;28;20030;-80
2023/06/30 06:36:01;;;;;;;5.53;3.17;;;;;;;18.34;58.50;101384.34;4964333;28;20019;-79
2023/06/30 06:38:26;;;;;;;10.93;3.00;;;;;;;18.53;57.92;101381.34;4967176;28;20034;-80
2023/06/30 06:40:52;;;;;;;6.65;2.60;;;;;;;18.59;56.77;101386.28;4967198;28;20050;-80
2023/06/30 06:43:17;;;;;;;2.92;2.25;;;;;;;18.54;54.69;101390.22;4962244;28;20015;-80
2023/06/30 06:45:42;;;;;;;9.52;2.53;;;;;;;18.65;55.01;101394.88;4968957;28;20042;-80
2023/06/30 06:48:25;;;;;;;4.20;2.60;;;;;;;18.86;56.25;101394.38;4966735;28;20045;-80
2023/06/30 06:51:01;;;;;;;3.40;2.20;;;;;;;19.08;55.75;101392.97;4963258;28;20173;-80
2023/06/30 06:53:28;;;;;;;7.50;3.22;;;;;;;19.15;56.86;101385.34;4970704;28;20082;-80
2023/06/30 06:55:56;;;;;;;4.82;2.38;;;;;;;19.32;54.87;101377.03;4969008;28;20015;-80
2023/06/30 06:58:22;;;;;;;3.60;2.40;;;;;;;19.44;52.71;101383.38;4964910;28;20505;-80
2023/06/30 07:00:49;;;;;;;5.72;2.33;;;;;;;19.33;52.64;101378.75;4964535;28;20026;-80
2023/06/30 07:03:15;;;;;;;4.22;2.30;;;;;;;19.50;56.15;101386.50;4964842;28;20735;-80
2023/06/30 07:05:41;;;;;;;4.07;2.10;;;;;;;19.72;52.53;101383.19;4967786;28;20026;-80
2023/06/30 07:08:07;;;;;;;2.95;2.10;;;;;;;19.92;53.10;101384.50;4972176;28;20066;-80
2023/06/30 07:10:33;;;;;;;5.47;1.98;;;;;;;19.98;57.91;101378.69;4966744;28;20183;-80
2023/06/30 07:12:58;;;;;;;2.10;1.55;;;;;;;20.03;51.69;101381.91;4970048;28;20027;-80
2023/06/30 07:15:25;;;;;;;4.93;2.22;;;;;;;19.91;49.96;101387.28;4966609;28;20050;-80
2023/06/30 07:17:50;;;;;;;4.03;2.33;;;;;;;20.00;49.42;101381.25;4970536;28;20106;-80
2023/06/30 07:20:16;;;;;;;2.85;1.65;;;;;;;20.04;48.90;101382.75;4967114;28;20023;-80
2023/06/30 07:22:41;;;;;;;5.95;1.60;;;;;;;20.13;49.31;101390.16;4950623;28;20470;-80
2023/06/30 07:25:07;;;;;;;5.05;2.00;;;;;;;20.18;48.49;101382.63;4972161;28;20045;-80
2023/06/30 07:27:32;;;;;;;3.08;1.50;;;;;;;20.07;48.86;101390.59;4969377;28;20023;-80
2023/06/30 07:29:58;;;;;;;3.33;1.40;;;;;;;20.12;47.82;101385.75;4964607;28;20082;-80
2023/06/30 07:32:23;;;;;;;2.97;1.38;;;;;;;20.53;46.73;101384.63;4966604;28;20027;-80
2023/06/30 07:34:48;;;;;;;2.85;1.15;;;;;;;21.07;45.93;101389.53;4970473;28;20058;-80
2023/06/30 07:37:14;;;;;;;4.22;1.23;;;;;;;22.03;49.27;101390.16;4964245;28;20027;-80
2023/06/30 07:39:39;;;;;;;1.98;1.10;;;;;;;22.78;42.56;101396.69;4967772;28;20073;-79
2023/06/30 07:42:04;;;;;;;2.50;1.40;;;;;;;23.16;40.64;101397.06;4968418;28;20031;-80
2023/06/30 07:44:31;;;;;;;4.10;1.23;;;;;;;23.36;40.77;101397.22;4962758;28;20105;-80
2023/06/30 07:46:56;;;;;;;2.47;1.23;;;;;;;23.62;38.71;101393.13;4968057;28;20035;-80
2023/06/30 07:49:21;;;;;;;3.58;1.30;;;;;;;24.06;38.30;101383.03;4966080;28;20034;-80
2023/06/30 07:51:47;;;;;;;4.32;1.20;;;;;;;24.39;38.11;101390.00;4970568;28;20457;-80
2023/06/30 07:54:12;;;;;;;3.88;1.30;;;;;;;24.50;39.07;101386.31;4971554;28;20540;-80
2023/06/30 07:56:38;;;;;;;3.40;1.00;;;;;;;24.87;35.59;101386.53;4969828;28;20085;-80
2023/06/30 07:59:03;;;;;;;2.83;1.00;;;;;;;25.24;35.97;101383.16;4967870;28;20113;-80
2023/06/30 08:01:28;;;;;;;8.17;1.17;;;;;;;25.36;34.93;101384.69;4970506;28;20172;-80
2023/06/30 08:03:54;;;;;;;2.07;1.07;;;;;;;25.72;34.90;101376.78;4965364;28;20694;-80
2023/06/30 08:06:19;;;;;;;3.60;1.67;;;;;;;25.88;34.08;101387.91;4953980;28;20278;-80
2023/06/30 08:08:44;;;;;;;2.70;0.95;;;;;;;26.06;34.21;101389.81;4970977;28;20485;-80
2023/06/30 08:11:10;;;;;;;2.92;1.08;;;;;;;26.17;33.56;101386.94;4971233;28;20035;-80
2023/06/30 08:13:35;;;;;;;5.30;1.40;;;;;;;26.50;34.84;101377.34;4967493;28;20572;-80
2023/06/30 08:16:01;;;;;;;2.55;1.33;;;;;;;26.51;31.87;101387.19;4962773;28;20027;-80
2023/06/30 08:18:28;;;;;;;2.03;1.08;;;;;;;26.66;32.44;101379.38;4968429;28;20176;-80
2023/06/30 08:20:55;;;;;;;4.22;1.27;;;;;;;27.24;32.63;101384.41;4968570;28;20027;-80
2023/06/30 08:23:21;;;;;;;4.80;1.40;;;;;;;27.33;31.60;101391.59;4969831;28;20498;-80
2023/06/30 08:25:46;;;;;;;3.75;1.00;;;;;;;27.31;30.90;101382.75;4968197;28;20023;-80
2023/06/30 08:28:11;;;;;;;1.80;0.77;;;;;;;27.35;29.74;101381.41;4970618;28;20113;-80
2023/06/30 08:30:36;;;;;;;3.90;1.43;;;;;;;27.59;29.83;101375.31;4963509;28;20138;-80
2023/06/30 08:33:02;;;;;;;1.70;1.07;;;;;;;27.49;29.03;101376.44;4967344;28;20836;-80
2023/06/30 08:35:27;;;;;;;2.75;0.90;;;;;;;27.73;31.67;101382.06;4966745;28;20274;-80
2023/06/30 08:37:52;;;;;;;2.42;1.17;;;;;;;27.67;30.42;101377.25;4962958;28;20409;-80
2023/06/30 08:40:26;;;;;;;1.93;1.23;;;;;;;27.66;32.05;101370.09;4969520;28;20022;-79
2023/06/30 08:42:52;;;;;;;5.32;1.38;;;;;;;28.13;29.29;101361.56;4967357;28;20285;-80
2023/06/30 08:45:18;;;;;;;2.40;1.15;;;;;;;28.59;28.56;101362.09;4970894;28;20114;-80
2023/06/30 08:47:44;;;;;;;2.25;1.20;;;;;;;29.01;28.44;101356.56;4964645;28;20499;-80
2023/06/30 08:50:10;;;;;;;1.70;1.20;;;;;;;28.50;28.15;101360.34;4960522;28;20022;-80
2023/06/30 08:52:35;;;;;;;2.80;1.20;;;;;;;27.70;29.47;101356.03;4961178;28;20035;-80
2023/06/30 08:55:02;;;;;;;3.22;1.27;;;;;;;27.33;29.96;101356.31;4947195;28;20117;-79
2023/06/30 08:57:29;;;;;;;3.60;1.15;;;;;;;27.30;31.06;101356.59;4960125;28;20035;-80
2023/06/30 08:59:55;;;;;;;4.25;1.42;;;;;;;27.51;31.70;101349.94;4959219;28;20125;-80
2023/06/30 09:02:22;;;;;;;3.30;1.40;;;;;;;27.34;30.20;101354.44;4961606;28;20724;-81
2023/06/30 09:04:48;;;;;;;2.80;1.30;;;;;;;27.17;30.00;101353.44;4962083;28;20098;-81
2023/06/30 09:07:25;;;;;;;5.90;1.55;;;;;;;27.03;33.14;101353.97;4964079;28;20113;-80
2023/06/30 09:09:55;;;;;;;1.52;1.10;;;;;;;26.74;32.04;101352.34;4964071;28;20488;-80
2023/06/30 09:12:21;;;;;;;6.47;1.67;;;;;;;26.57;31.57;101350.47;4947309;28;20575;-81
2023/06/30 09:14:48;;;;;;;4.78;1.75;;;;;;;26.64;32.33;101348.88;4969187;28;20118;-80
2023/06/30 09:17:13;;;;;;;3.70;1.65;;;;;;;26.01;31.81;101346.91;4969884;28;20038;-80
2023/06/30 09:19:39;;;;;;;3.88;1.77;;;;;;;25.51;33.40;101351.75;4969292;28;20035;-80
2023/06/30 09:22:05;;;;;;;3.45;1.50;;;;;;;25.63;32.83;101346.00;4963902;28;20039;-80
2023/06/30 09:24:30;;;;;;;2.88;1.33;;;;;;;26.08;32.36;101347.16;4968064;28;20046;-80
2023/06/30 09:26:56;;;;;;;5.68;1.90;;;;;;;26.36;31.24;101345.31;4965163;28;20470;-80
2023/06/30 09:29:22;;;;;;;3.88;1.55;;;;;;;26.16;31.48;101348.13;4969146;28;20035;-80
2023/06/30 09:31:52;;;;;;;4.63;1.60;;;;;;;25.91;32.22;101344.25;4965836;28;20023;-80
2023/06/30 09:34:19;;;;;;;3.35;1.40;;;;;;;26.28;30.89;101343.34;4966715;28;20054;-80
2023/06/30 09:36:54;;;;;;;4.30;1.33;;;;;;;26.55;33.05;101347.06;4963590;28;20122;-80
2023/06/30 09:39:21;;;;;;;3.58;1.70;;;;;;;26.81;30.62;101342.56;4961637;28;20766;-80
2023/06/30 09:41:48;;;;;;;3.88;1.58;;;;;;;26.65;30.28;101350.56;4967812;28;20027;-80
2023/06/30 09:44:17;;;;;;;3.80;1.90;;;;;;;26.68;32.42;101334.00;4966028;28;20034;-80
2023/06/30 09:46:46;;;;;;;5.07;1.60;;;;;;;27.10;31.64;101334.22;4961912;28;20022;-80
2023/06/30 09:49:39;;;;;;;2.85;1.40;;;;;;;27.76;31.14;101335.56;4967973;28;20089;-80
2023/06/30 09:52:05;;;;;;;3.17;1.77;;;;;;;28.03;29.23;101333.66;4962115;28;20027;-84
2023/06/30 09:54:31;;;;;;;4.57;1.80;;;;;;;28.02;30.24;101334.63;4960654;28;20035;-80
2023/06/30 09:56:57;;;;;;;5.10;1.98;;;;;;;27.68;29.15;101330.03;4961783;28;20046;-84
2023/06/30 09:59:22;;;;;;;2.85;1.63;;;;;;;27.35;32.59;101329.81;4962329;28;20054;-84
2023/06/30 10:01:51;;;;;;;3.60;1.80;;;;;;;27.07;31.36;101334.50;4962634;28;20494;-83
2023/06/30 10:04:17;;;;;;;5.25;1.75;;;;;;;27.12;30.28;101339.50;4965164;28;20031;-80
2023/06/30 10:06:42;;;;;;;5.68;1.60;;;;;;;26.89;30.64;101329.09;4943848;28;20088;-80
2023/06/30 10:09:08;;;;;;;3.50;1.63;;;;;;;26.89;33.23;101331.81;4964263;28;20045;-80
2023/06/30 10:11:35;;;;;;;3.35;1.60;;;;;;;27.38;32.58;101329.53;4962631;28;20045;-80
2023/06/30 10:14:01;;;;;;;2.67;1.63;;;;;;;27.62;28.63;101325.25;4964485;28;20544;-80
2023/06/30 10:16:28;;;;;;;3.90;1.35;;;;;;;27.45;28.02;101330.56;4966445;28;20023;-80
2023/06/30 10:18:55;;;;;;;3.28;1.70;;;;;;;27.35;28.96;101326.25;4968863;28;20093;-80
2023/06/30 10:21:21;;;;;;;6.57;2.13;;;;;;;27.46;28.76;101320.56;4964546;28;20035;-80
2023/06/30 10:23:47;;;;;;;4.93;1.63;;;;;;;27.54;30.60;101314.34;4965155;28;20964;-79
2023/06/30 10:26:17;;;;;;;3.90;1.27;;;;;;;27.77;30.05;101320.09;4965810;28;20080;-79
2023/06/30 10:28:43;;;;;;;5.38;1.92;;;;;;;27.71;28.27;101313.41;4965815;28;20039;-79
2023/06/30 10:31:09;;;;;;;3.70;1.85;;;;;;;27.54;28.08;101312.47;4962896;28;20073;-80
2023/06/30 10:33:34;;;;;;;3.70;1.80;;;;;;;27.30;29.60;101317.75;4969064;28;20031;-80
2023/06/30 10:36:00;;;;;;;2.90;1.60;;;;;;;27.11;29.90;101318.78;4967700;28;20019;-80
2023/06/30 10:38:26;;;;;;;4.55;2.15;;;;;;;27.45;29.01;101306.13;4964175;28;20042;-80
2023/06/30 10:41:14;;;;;;;2.63;1.83;;;;;;;27.31;30.58;101300.44;4965566;28;20027;-80
2023/06/30 10:44:02;;;;;;;3.13;1.88;;;;;;;27.79;29.73;101299.88;4965186;28;20039;-80
2023/06/30 10:46:55;;;;;;;6.85;1.58;;;;;;;27.94;29.62;101298.28;4953514;28;20034;-80
2023/06/30 10:49:27;;;;;;;3.85;1.60;;;;;;;28.53;29.13;101295.56;4965763;28;20035;-80
2023/06/30 10:51:54;;;;;;;4.00;1.60;;;;;;;28.39;28.93;101294.34;4963426;28;20031;-80
2023/06/30 10:54:24;;;;;;;4.13;1.75;;;;;;;28.27;28.39;101289.38;4966078;28;20178;-80
2023/06/30 10:56:51;;;;;;;4.07;1.83;;;;;;;28.54;28.16;101293.69;4970772;28;20050;-80
2023/06/30 10:59:25;;;;;;;2.83;1.83;;;;;;;28.79;28.77;101294.59;4964186;28;20117;-81
2023/06/30 11:02:10;;;;;;;3.80;1.88;;;;;;;28.69;28.57;101287.44;4964184;28;20113;-80
2023/06/30 11:04:36;;;;;;;2.88;2.00;;;;;;;28.78;27.26;101290.16;4964989;28;20061;-80
2023/06/30 11:07:02;;;;;;;3.10;1.60;;;;;;;28.84;27.20;101276.72;4943508;28;20034;-80
2023/06/30 11:09:48;;;;;;;7.13;1.88;;;;;;;29.22;29.31;101286.06;4969773;28;20053;-80
2023/06/30 11:12:18;;;;;;;3.83;2.22;;;;;;;28.37;28.97;101277.34;4968190;28;20030;-80
2023/06/30 11:15:23;;;;;;;4.43;2.38;;;;;;;27.88;30.12;101266.28;4963659;28;20039;-80
2023/06/30 11:17:51;;;;;;;2.85;1.75;;;;;;;27.43;28.77;101275.56;4942093;28;20041;-80
2023/06/30 11:20:17;;;;;;;4.93;1.65;;;;;;;27.63;30.02;101272.63;4965001;28;20047;-80
2023/06/30 11:22:55;;;;;;;3.60;1.73;;;;;;;28.54;29.78;101274.66;4965127;28;20032;-80